createdAt,value
2023-02-26T19:17:05.514Z,55.03540039
2023-02-26T19:18:07.141Z,54.93164063
2023-02-26T19:19:08.155Z,55.03540039
2023-02-26T19:20:09.100Z,55.13916016
2023-02-26T19:21:10.074Z,55.34667969
2023-02-26T19:22:11.519Z,55.45043945
2023-02-26T19:23:13.089Z,55.55419922
2023-02-26T19:24:14.263Z,55.55419922
2023-02-26T19:25:15.223Z,55.55419922
2023-02-26T19:26:16.139Z,55.45043945
2023-02-26T19:27:17.642Z,55.45043945
2023-02-26T19:28:18.724Z,55.45043945
2023-02-26T19:29:19.888Z,55.45043945
2023-02-26T19:30:20.997Z,55.52978516
2023-02-26T19:31:22.139Z,55.73730469
2023-02-26T19:32:23.356Z,55.84106445
2023-02-26T19:33:24.189Z,56.04858398
2023-02-26T19:34:25.141Z,56.46972656
2023-02-26T19:35:26.122Z,56.46972656
2023-02-26T19:36:27.152Z,56.57348633
2023-02-26T19:37:59.082Z,56.57348633
2023-02-26T19:38:59.950Z,56.70166016
2023-02-26T19:40:00.894Z,56.70166016
2023-02-26T19:41:01.783Z,56.70166016
2023-02-26T19:42:02.738Z,56.80541992
2023-02-26T19:43:03.772Z,56.90917969
2023-02-26T19:44:04.619Z,57.11669922
2023-02-26T19:45:05.623Z,57.22045898
2023-02-26T19:46:06.965Z,57.32421875
2023-02-26T19:47:08.518Z,57.22045898
2023-02-26T19:48:09.635Z,57.32421875
2023-02-26T19:49:10.673Z,57.74536133
2023-02-26T19:50:11.579Z,58.86230469
2023-02-26T19:51:13.116Z,61.0534668
2023-02-26T19:52:14.014Z,58.23974609
2023-02-26T19:53:14.973Z,57.61108398
2023-02-26T19:54:16.074Z,57.29980469
2023-02-26T19:55:17.167Z,57.29980469
2023-02-26T19:56:18.145Z,57.40356445
2023-02-26T19:57:20.143Z,57.71484375
2023-02-26T19:58:21.143Z,57.95288086
2023-02-26T19:59:22.199Z,58.05664063
2023-02-26T20:00:23.105Z,58.05664063
2023-02-26T20:01:24.168Z,58.26416016
2023-02-26T20:02:25.326Z,58.47167969
2023-02-26T20:03:26.374Z,58.57543945
2023-02-26T20:04:27.774Z,58.36791992
2023-02-26T20:05:59.318Z,58.47167969
2023-02-26T20:07:01.119Z,58.36791992
2023-02-26T20:08:02.040Z,58.05664063
2023-02-26T20:09:03.098Z,57.95288086
2023-02-26T20:10:04.066Z,57.74536133
2023-02-26T20:11:05.115Z,57.74536133
2023-02-26T20:12:06.086Z,57.95288086
2023-02-26T20:13:07.117Z,58.16040039
2023-02-26T20:14:08.041Z,58.26416016
2023-02-26T20:15:09.078Z,58.05664063
2023-02-26T20:16:09.978Z,58.16040039
2023-02-26T20:17:11.599Z,58.26416016
2023-02-26T20:18:12.521Z,58.26416016
2023-02-26T20:19:13.563Z,58.16040039
2023-02-26T20:20:14.415Z,57.95288086
2023-02-26T20:21:15.300Z,57.84912109
2023-02-26T20:22:16.317Z,58.05664063
2023-02-26T20:23:18.158Z,57.84912109
2023-02-26T20:24:19.256Z,57.64160156
2023-02-26T20:25:20.159Z,57.64160156
2023-02-26T20:26:21.243Z,57.74536133
2023-02-26T20:27:23.105Z,57.84912109
2023-02-26T20:28:24.601Z,57.95288086
2023-02-26T20:29:25.817Z,58.05664063
2023-02-26T20:30:26.734Z,58.36791992
2023-02-26T20:31:58.550Z,58.36791992
2023-02-26T20:32:59.455Z,58.36791992
2023-02-26T20:34:00.298Z,58.47167969
2023-02-26T20:35:01.388Z,58.36791992
2023-02-26T20:36:02.224Z,58.47167969
2023-02-26T20:37:04.151Z,58.57543945
2023-02-26T20:38:05.380Z,58.99658203
2023-02-26T20:39:06.252Z,59.20410156
2023-02-26T20:40:07.201Z,59.1003418
2023-02-26T20:41:08.080Z,58.99658203
2023-02-26T20:42:09.152Z,58.89282227
2023-02-26T20:43:10.111Z,58.7890625
2023-02-26T20:44:11.280Z,58.7890625
2023-02-26T20:45:12.226Z,58.67919922
2023-02-26T20:46:13.200Z,58.67919922
2023-02-26T20:47:15.129Z,58.89282227
2023-02-26T20:48:16.072Z,58.7890625
2023-02-26T20:49:17.228Z,58.67919922
2023-02-26T20:50:18.275Z,58.57543945
2023-02-26T20:51:19.182Z,58.36791992
2023-02-26T20:52:20.209Z,58.16040039
2023-02-26T20:53:22.111Z,57.95288086
2023-02-26T20:54:23.046Z,57.74536133
2023-02-26T20:55:24.029Z,57.95288086
2023-02-26T20:56:24.962Z,57.97729492
2023-02-26T20:57:26.630Z,58.50219727
2023-02-26T20:58:58.056Z,58.81347656
2023-02-26T20:59:59.022Z,58.91723633
2023-02-26T21:01:00.193Z,58.81347656
2023-02-26T21:02:01.160Z,58.60595703
2023-02-26T21:03:02.333Z,58.60595703
2023-02-26T21:04:03.378Z,58.7097168
2023-02-26T21:05:04.425Z,58.50219727
2023-02-26T21:06:05.532Z,58.50219727
2023-02-26T21:07:06.509Z,58.3984375
2023-02-26T21:08:08.478Z,58.29467773
2023-02-26T21:09:09.781Z,58.08105469
2023-02-26T21:10:10.712Z,58.08105469
2023-02-26T21:11:12.125Z,57.87353516
2023-02-26T21:12:13.366Z,57.87353516
2023-02-26T21:13:14.834Z,57.87353516
2023-02-26T21:14:15.813Z,57.97729492
2023-02-26T21:15:16.665Z,57.97729492
2023-02-26T21:16:17.745Z,58.08105469
2023-02-26T21:17:19.714Z,58.08105469
2023-02-26T21:18:20.919Z,57.97729492
2023-02-26T21:19:21.949Z,57.66601563
2023-02-26T21:20:22.816Z,57.76977539
2023-02-26T21:21:24.607Z,57.66601563
2023-02-26T21:22:25.624Z,57.56225586
2023-02-26T21:23:27.130Z,57.66601563
2023-02-26T21:24:58.764Z,57.45849609
2023-02-26T21:25:59.807Z,57.56225586
2023-02-26T21:27:00.925Z,57.56225586
2023-02-26T21:28:02.696Z,57.66601563
2023-02-26T21:29:03.830Z,57.66601563
2023-02-26T21:30:04.863Z,57.66601563
2023-02-26T21:31:05.942Z,57.56225586
2023-02-26T21:32:07.224Z,57.56225586
2023-02-26T21:33:08.154Z,57.66601563
2023-02-26T21:34:30.260Z,57.76977539
2023-02-26T21:35:10.705Z,57.97729492
2023-02-26T21:36:11.734Z,57.56225586
2023-02-26T21:37:12.846Z,57.35473633
2023-02-26T21:38:14.675Z,57.35473633
2023-02-26T21:39:15.731Z,57.45849609
2023-02-26T21:40:16.878Z,57.35473633
2023-02-26T21:41:18.186Z,57.32421875
2023-02-26T21:42:19.478Z,57.35473633
2023-02-26T21:43:20.365Z,57.35473633
2023-02-26T21:44:21.796Z,57.35473633
2023-02-26T21:45:22.999Z,57.45849609
2023-02-26T21:46:24.125Z,57.1472168
2023-02-26T21:47:25.133Z,57.25097656
2023-02-26T21:48:57.635Z,57.04345703
2023-02-26T21:49:58.778Z,57.1472168
2023-02-26T21:50:59.820Z,57.25097656
2023-02-26T21:52:00.729Z,57.25097656
2023-02-26T21:53:01.725Z,57.45849609
2023-02-26T21:54:03.628Z,57.45849609
2023-02-26T21:55:04.713Z,57.56225586
2023-02-26T21:56:05.812Z,57.56225586
2023-02-26T21:57:06.920Z,57.56225586
2023-02-26T21:58:08.593Z,57.56225586
2023-02-26T21:59:09.562Z,57.76977539
2023-02-26T22:00:10.812Z,57.97729492
2023-02-26T22:01:11.883Z,57.87353516
2023-02-26T22:02:12.929Z,57.64160156
2023-02-26T22:03:13.926Z,57.43408203
2023-02-26T22:04:14.907Z,57.32421875
2023-02-26T22:05:16.179Z,57.5378418
2023-02-26T22:06:17.198Z,57.43408203
2023-02-26T22:07:18.405Z,57.45849609
2023-02-26T22:08:20.152Z,57.45849609
2023-02-26T22:09:21.069Z,57.45849609
2023-02-26T22:10:22.104Z,57.45849609
2023-02-26T22:11:23.144Z,57.5378418
2023-02-26T22:12:24.296Z,57.35473633
2023-02-26T22:13:26.560Z,56.82983398
2023-02-26T22:14:58.069Z,57.04345703
2023-02-26T22:15:59.131Z,57.35473633
2023-02-26T22:17:00.162Z,57.35473633
2023-02-26T22:18:02.141Z,57.45849609
2023-02-26T22:19:03.049Z,57.56225586
2023-02-26T22:20:04.073Z,57.35473633
2023-02-26T22:21:05.074Z,57.1472168
2023-02-26T22:22:06.667Z,57.35473633
2023-02-26T22:23:07.652Z,57.25097656
2023-02-26T22:24:08.597Z,57.25097656
2023-02-26T22:25:09.511Z,57.1472168
2023-02-26T22:26:10.718Z,57.1472168
2023-02-26T22:27:11.732Z,57.04345703
2023-02-26T22:28:13.641Z,56.93359375
2023-02-26T22:29:15.143Z,56.93359375
2023-02-26T22:30:16.020Z,57.25097656
2023-02-26T22:31:17.147Z,57.25097656
2023-02-26T22:32:18.107Z,57.25097656
2023-02-26T22:33:19.094Z,57.35473633
2023-02-26T22:34:20.174Z,57.35473633
2023-02-26T22:35:21.199Z,57.35473633
2023-02-26T22:36:22.080Z,57.25097656
2023-02-26T22:37:23.149Z,57.35473633
2023-02-26T22:38:25.377Z,57.66601563
2023-02-26T22:39:57.234Z,57.45849609
2023-02-26T22:40:58.098Z,57.45849609
2023-02-26T22:41:58.995Z,57.66601563
2023-02-26T22:43:00.196Z,57.76977539
2023-02-26T22:44:01.229Z,57.76977539
2023-02-26T22:45:02.305Z,57.56225586
2023-02-26T22:46:03.334Z,57.56225586
2023-02-26T22:47:04.260Z,57.45849609
2023-02-26T22:48:06.216Z,57.45849609
2023-02-26T22:49:07.263Z,57.66601563
2023-02-26T22:50:08.307Z,57.66601563
2023-02-26T22:51:09.261Z,57.45849609
2023-02-26T22:52:10.414Z,57.66601563
2023-02-26T22:53:11.399Z,57.66601563
2023-02-26T22:54:13.152Z,57.35473633
2023-02-26T22:55:14.292Z,57.45849609
2023-02-26T22:56:15.256Z,57.45849609
2023-02-26T22:57:17.028Z,57.35473633
2023-02-26T22:58:18.563Z,57.56225586
2023-02-26T22:59:19.677Z,57.25097656
2023-02-26T23:00:20.769Z,57.25097656
2023-02-26T23:01:21.747Z,57.25097656
2023-02-26T23:02:22.663Z,57.45849609
2023-02-26T23:03:23.558Z,57.56225586
2023-02-26T23:04:24.638Z,57.76977539
2023-02-26T23:05:26.116Z,57.66601563
2023-02-26T23:06:57.696Z,57.87353516
2023-02-26T23:07:58.576Z,57.97729492
2023-02-26T23:09:00.165Z,58.08105469
2023-02-26T23:10:01.375Z,58.08105469
2023-02-26T23:11:02.406Z,57.87353516
2023-02-26T23:12:04.081Z,57.87353516
2023-02-26T23:13:05.029Z,57.66601563
2023-02-26T23:14:05.897Z,57.97729492
2023-02-26T23:15:06.885Z,58.08105469
2023-02-26T23:16:08.021Z,57.97729492
2023-02-26T23:17:11.262Z,57.97729492
2023-02-26T23:18:10.723Z,57.97729492
2023-02-26T23:19:12.640Z,57.76977539
2023-02-26T23:20:13.894Z,57.76977539
2023-02-26T23:21:14.744Z,57.76977539
2023-02-26T23:22:15.773Z,57.76977539
2023-02-26T23:23:16.770Z,57.87353516
2023-02-26T23:24:18.584Z,57.97729492
2023-02-26T23:25:19.544Z,57.97729492
2023-02-26T23:26:20.795Z,58.18481445
2023-02-26T23:27:21.773Z,58.18481445
2023-02-26T23:28:25.295Z,58.18481445
2023-02-26T23:29:24.551Z,58.3984375
2023-02-26T23:30:25.897Z,58.29467773
2023-02-26T23:31:57.704Z,58.3984375
2023-02-26T23:32:58.496Z,58.50219727
2023-02-26T23:33:59.553Z,58.60595703
2023-02-26T23:35:01.088Z,58.91723633
2023-02-26T23:36:01.980Z,58.7097168
2023-02-26T23:37:03.066Z,58.60595703
2023-02-26T23:38:04.100Z,58.7097168
2023-02-26T23:39:05.688Z,58.60595703
2023-02-26T23:40:06.622Z,58.60595703
2023-02-26T23:41:07.515Z,58.7097168
2023-02-26T23:42:08.552Z,58.94165039
2023-02-26T23:43:09.680Z,59.05151367
2023-02-26T23:44:10.747Z,59.05151367
2023-02-26T23:45:11.718Z,59.02099609
2023-02-26T23:46:12.744Z,59.02099609
2023-02-26T23:47:13.544Z,58.7097168
2023-02-26T23:48:14.586Z,58.7097168
2023-02-26T23:49:16.701Z,58.81347656
2023-02-26T23:50:17.755Z,58.91723633
2023-02-26T23:51:18.695Z,58.91723633
2023-02-26T23:52:19.654Z,58.91723633
2023-02-26T23:53:20.845Z,59.02099609
2023-02-26T23:54:21.908Z,58.81347656
2023-02-26T23:55:22.929Z,58.81347656
2023-02-26T23:56:24.028Z,58.81347656
2023-02-26T23:57:24.970Z,58.94165039
2023-02-26T23:58:57.213Z,59.05151367
2023-02-26T23:59:59.102Z,59.15527344
